Terminal Aerodrome Forecast
Issued by NWS Green Bay, WI

Home | Current Version | Previous Version | Text Only | Print | Product List | Glossary Off
Versions: 1 2 3 4 5 6 7 8 9 10 11 12 13 14 15 16

000
FTUS43 KGRB 230520
TAFGRB
TAF
KGRB 230520Z 2306/2406 19008KT P6SM SCT100 WS010/23035KT
     FM231200 20007KT P6SM SKC
     FM231500 20012G19KT P6SM SKC
     FM240200 19008KT P6SM SCT035 BKN200=

USA.gov is the U.S. government's official web portal to all federal, state and local government web resources and services.